createdAt,value
2023-03-18T00:01:51.153Z,4.71
2023-03-18T00:04:19.638Z,4.76
2023-03-18T00:06:48.220Z,4.79
2023-03-18T00:09:20.085Z,4.75
2023-03-18T00:11:49.377Z,4.74
2023-03-18T00:14:19.622Z,4.72
2023-03-18T00:16:51.461Z,4.73
2023-03-18T00:19:20.351Z,4.72
2023-03-18T00:21:49.351Z,4.72
2023-03-18T00:24:17.928Z,4.72
2023-03-18T00:26:47.434Z,4.71
2023-03-18T00:29:16.741Z,4.68
2023-03-18T00:31:46.443Z,4.61
2023-03-18T00:34:15.238Z,4.53
2023-03-18T00:36:45.972Z,4.50
2023-03-18T00:39:15.172Z,4.49
2023-03-18T00:41:43.764Z,4.53
2023-03-18T00:44:15.214Z,4.53
2023-03-18T00:46:43.949Z,4.52
2023-03-18T00:49:12.275Z,4.49
2023-03-18T00:51:44.858Z,4.46
2023-03-18T00:54:14.463Z,4.41
2023-03-18T00:56:43.883Z,4.39
2023-03-18T00:59:12.251Z,4.44
2023-03-18T01:01:42.282Z,4.50
2023-03-18T01:04:11.787Z,4.43
2023-03-18T01:06:45.682Z,4.43
2023-03-18T01:09:14.680Z,4.42
2023-03-18T01:11:44.617Z,4.38
2023-03-18T01:14:13.492Z,4.34
2023-03-18T01:16:45.074Z,4.33
2023-03-18T01:19:14.957Z,4.43
2023-03-18T01:21:43.645Z,4.48
2023-03-18T01:24:13.471Z,4.46
2023-03-18T01:26:41.937Z,4.44
2023-03-18T01:29:11.141Z,4.40
2023-03-18T01:31:39.638Z,4.33
2023-03-18T01:34:12.509Z,4.29
2023-03-18T01:36:54.201Z,4.33
2023-03-18T01:39:24.222Z,4.37
2023-03-18T01:41:52.622Z,4.42
2023-03-18T01:44:27.941Z,4.46
2023-03-18T01:46:57.550Z,4.49
2023-03-18T01:49:36.717Z,4.51
2023-03-18T01:52:07.006Z,4.54
2023-03-18T01:54:43.987Z,4.55
2023-03-18T01:57:17.691Z,4.62
2023-03-18T01:59:46.636Z,4.65
2023-03-18T02:02:15.783Z,4.55
2023-03-18T02:04:56.668Z,4.46
2023-03-18T02:07:28.522Z,4.29
2023-03-18T02:10:02.845Z,4.21
2023-03-18T02:12:39.434Z,4.22
2023-03-18T02:15:11.645Z,4.22
2023-03-18T02:17:48.000Z,4.33
2023-03-18T02:20:20.537Z,4.45
2023-03-18T02:22:52.395Z,4.51
2023-03-18T02:25:22.311Z,4.56
2023-03-18T02:28:04.660Z,4.53
2023-03-18T02:30:46.694Z,4.49
2023-03-18T02:33:17.043Z,4.49
2023-03-18T02:35:45.942Z,4.49
2023-03-18T02:38:15.033Z,4.49
2023-03-18T02:40:43.412Z,4.50
2023-03-18T02:43:22.974Z,4.50
2023-03-18T02:46:31.524Z,4.47
2023-03-18T02:49:01.116Z,4.42
2023-03-18T02:51:30.403Z,4.36
2023-03-18T02:54:13.399Z,4.28
2023-03-18T02:56:43.049Z,4.24
2023-03-18T02:59:14.593Z,4.31
2023-03-18T03:01:44.081Z,4.38
2023-03-18T03:04:12.876Z,4.38
2023-03-18T03:06:43.098Z,4.41
2023-03-18T03:09:14.145Z,4.42
2023-03-18T03:11:43.277Z,4.37
2023-03-18T03:14:16.023Z,4.37
2023-03-18T03:16:45.218Z,4.34
2023-03-18T03:19:18.106Z,4.33
2023-03-18T03:21:48.748Z,4.34
2023-03-18T03:24:17.408Z,4.34
2023-03-18T03:26:46.629Z,4.35
2023-03-18T03:29:15.622Z,4.36
2023-03-18T03:31:44.001Z,4.31
2023-03-18T03:34:12.690Z,4.26
2023-03-18T03:36:41.995Z,4.28
2023-03-18T03:39:10.992Z,4.31
2023-03-18T03:41:39.882Z,4.29
2023-03-18T03:44:08.670Z,4.26
2023-03-18T03:46:39.682Z,4.23
2023-03-18T03:49:08.404Z,4.23
2023-03-18T03:51:37.663Z,4.22
2023-03-18T03:54:06.903Z,4.20
2023-03-18T03:56:37.124Z,4.26
2023-03-18T03:59:05.615Z,4.37
2023-03-18T04:01:53.855Z,4.42
2023-03-18T04:04:24.501Z,4.42
2023-03-18T04:06:53.479Z,4.41
2023-03-18T04:09:25.034Z,4.43
2023-03-18T04:11:53.725Z,4.41
2023-03-18T04:14:22.108Z,4.38
2023-03-18T04:16:51.111Z,4.35
2023-03-18T04:19:20.398Z,4.37
2023-03-18T04:21:50.007Z,4.42
2023-03-18T04:24:19.719Z,4.46
2023-03-18T04:26:48.509Z,4.48
2023-03-18T04:29:16.993Z,4.51
2023-03-18T04:31:46.001Z,4.53
2023-03-18T04:34:14.572Z,4.50
2023-03-18T04:36:43.779Z,4.55
2023-03-18T04:39:12.458Z,4.50
2023-03-18T04:41:48.934Z,4.43
2023-03-18T04:44:19.661Z,4.36
2023-03-18T04:46:53.779Z,4.37
2023-03-18T04:49:22.573Z,4.37
2023-03-18T04:51:51.667Z,4.38
2023-03-18T04:54:25.694Z,4.36
2023-03-18T04:56:55.582Z,4.31
2023-03-18T04:59:28.603Z,4.30
2023-03-18T05:01:57.784Z,4.31
2023-03-18T05:04:26.671Z,4.29
2023-03-18T05:06:56.592Z,4.24
2023-03-18T05:09:30.088Z,4.31
2023-03-18T05:12:01.438Z,4.36
2023-03-18T05:14:35.377Z,4.37
2023-03-18T05:17:04.655Z,4.36
2023-03-18T05:19:38.663Z,4.32
2023-03-18T05:22:16.668Z,4.26
2023-03-18T05:24:48.843Z,4.20
2023-03-18T05:27:19.186Z,4.16
2023-03-18T05:29:56.352Z,4.11
2023-03-18T05:32:35.837Z,4.14
2023-03-18T05:35:06.241Z,4.12
2023-03-18T05:37:40.029Z,4.08
2023-03-18T05:40:11.992Z,4.06
2023-03-18T05:42:57.114Z,4.09
2023-03-18T05:45:34.607Z,4.13
2023-03-18T05:48:03.751Z,4.14
2023-03-18T05:50:42.092Z,4.21
2023-03-18T05:53:12.389Z,4.36
2023-03-18T05:55:42.755Z,4.43
2023-03-18T05:58:12.125Z,4.47
2023-03-18T06:00:41.845Z,4.51
2023-03-18T06:03:11.991Z,4.46
2023-03-18T06:05:41.056Z,4.40
2023-03-18T06:08:09.945Z,4.40
2023-03-18T06:10:40.577Z,4.40
2023-03-18T06:13:11.314Z,4.41
2023-03-18T06:15:39.805Z,4.44
2023-03-18T06:18:09.715Z,4.51
2023-03-18T06:20:39.323Z,4.51
2023-03-18T06:23:11.185Z,4.43
2023-03-18T06:25:41.619Z,4.34
2023-03-18T06:28:10.301Z,4.22
2023-03-18T06:30:39.346Z,4.17
2023-03-18T06:33:08.990Z,4.17
2023-03-18T06:35:39.977Z,4.26
2023-03-18T06:38:10.994Z,4.34
2023-03-18T06:40:40.702Z,4.39
2023-03-18T06:43:09.492Z,4.44
2023-03-18T06:45:39.508Z,4.49
2023-03-18T06:48:10.760Z,4.51
2023-03-18T06:50:44.363Z,4.51
2023-03-18T06:53:19.097Z,4.52
2023-03-18T06:55:48.797Z,4.58
2023-03-18T06:58:18.822Z,4.67
2023-03-18T07:00:53.393Z,4.71
2023-03-18T07:03:26.432Z,4.73
2023-03-18T07:05:58.303Z,4.73
2023-03-18T07:08:27.598Z,4.74
2023-03-18T07:10:57.670Z,4.75
2023-03-18T07:13:27.221Z,4.79
2023-03-18T07:16:00.707Z,4.83
2023-03-18T07:18:29.725Z,4.93
2023-03-18T07:21:04.785Z,4.99
2023-03-18T07:23:34.584Z,4.98
2023-03-18T07:26:02.951Z,4.99
2023-03-18T07:28:33.275Z,5.02
2023-03-18T07:31:02.047Z,5.05
2023-03-18T07:33:34.955Z,5.12
2023-03-18T07:36:03.666Z,5.18
2023-03-18T07:38:32.229Z,5.24
2023-03-18T07:41:01.842Z,5.32
2023-03-18T07:43:31.346Z,5.40
2023-03-18T07:46:06.354Z,5.51
2023-03-18T07:48:35.479Z,5.57
2023-03-18T07:51:04.083Z,5.59
2023-03-18T07:53:34.075Z,5.56
2023-03-18T07:56:03.990Z,5.50
2023-03-18T07:58:38.947Z,5.45
2023-03-18T08:01:08.034Z,5.41
2023-03-18T08:03:37.381Z,5.38
2023-03-18T08:06:06.395Z,5.39
2023-03-18T08:08:35.006Z,5.41
2023-03-18T08:11:06.972Z,5.50
2023-03-18T08:13:39.054Z,5.59
2023-03-18T08:16:08.321Z,5.68
2023-03-18T08:18:38.058Z,5.74
2023-03-18T08:21:08.173Z,5.80
2023-03-18T08:23:37.205Z,5.85
2023-03-18T08:26:08.108Z,5.87
2023-03-18T08:28:36.569Z,5.88
2023-03-18T08:31:10.670Z,5.98
2023-03-18T08:33:39.496Z,5.99
2023-03-18T08:36:08.853Z,6.01
2023-03-18T08:38:39.448Z,6.04
2023-03-18T08:41:07.910Z,6.07
2023-03-18T08:43:39.114Z,6.14
2023-03-18T08:46:09.120Z,6.18
2023-03-18T08:48:37.685Z,6.20
2023-03-18T08:51:10.874Z,6.30
2023-03-18T08:53:40.071Z,6.35
2023-03-18T08:56:15.105Z,6.48
2023-03-18T08:58:46.338Z,6.70
2023-03-18T09:01:15.336Z,6.93
2023-03-18T09:03:44.916Z,7.14
2023-03-18T09:06:13.634Z,7.28
2023-03-18T09:08:42.845Z,7.33
2023-03-18T09:11:13.875Z,7.34
2023-03-18T09:13:42.366Z,7.36
2023-03-18T09:16:14.839Z,7.38
2023-03-18T09:18:45.272Z,7.45
2023-03-18T09:21:14.576Z,7.57
2023-03-18T09:23:44.780Z,7.84
2023-03-18T09:26:13.168Z,8.21
2023-03-18T09:28:43.692Z,8.53
2023-03-18T09:31:14.005Z,8.73
2023-03-18T09:33:43.539Z,8.90
2023-03-18T09:36:12.886Z,9.08
2023-03-18T09:38:42.837Z,9.24
2023-03-18T09:41:45.011Z,9.29
2023-03-18T09:44:34.006Z,9.19
2023-03-18T09:47:08.763Z,9.12
2023-03-18T09:50:10.870Z,9.02
2023-03-18T09:53:05.578Z,8.85
2023-03-18T09:55:41.420Z,8.59
2023-03-18T09:58:40.623Z,8.43
2023-03-18T10:01:09.986Z,8.41
2023-03-18T10:03:47.110Z,8.31
2023-03-18T10:06:32.901Z,8.34
2023-03-18T10:09:01.583Z,8.25
2023-03-18T10:11:34.468Z,8.18
2023-03-18T10:14:15.344Z,8.14
2023-03-18T10:16:59.599Z,8.16
2023-03-18T10:19:29.116Z,8.14
2023-03-18T10:22:16.320Z,8.08
2023-03-18T10:25:00.870Z,8.00
2023-03-18T10:27:46.153Z,7.90
2023-03-18T10:30:36.550Z,7.76
2023-03-18T10:33:19.097Z,7.72
2023-03-18T10:36:29.731Z,7.75
2023-03-18T10:38:58.632Z,7.87
2023-03-18T10:41:32.846Z,7.92
2023-03-18T10:44:11.355Z,7.97
2023-03-18T10:46:39.831Z,7.93
2023-03-18T10:49:21.433Z,7.89
2023-03-18T10:51:54.002Z,7.84
2023-03-18T10:54:39.790Z,7.81
2023-03-18T10:57:14.932Z,7.82
2023-03-18T10:59:45.673Z,7.81
2023-03-18T11:02:30.189Z,7.73
2023-03-18T11:05:11.914Z,7.76
2023-03-18T11:08:09.275Z,7.83
2023-03-18T11:10:40.726Z,7.93
2023-03-18T11:13:17.895Z,8.03
2023-03-18T11:15:52.194Z,8.15
2023-03-18T11:18:25.215Z,8.24
2023-03-18T11:21:01.148Z,8.25
2023-03-18T11:23:53.618Z,8.26
2023-03-18T11:26:22.097Z,8.38
2023-03-18T11:28:56.537Z,8.41
2023-03-18T11:31:25.174Z,8.33
2023-03-18T11:33:59.424Z,8.25
2023-03-18T11:36:28.414Z,8.26
2023-03-18T11:38:59.792Z,8.26
2023-03-18T11:41:28.787Z,8.22
2023-03-18T11:44:00.323Z,8.19
2023-03-18T11:46:36.581Z,8.21
2023-03-18T11:49:04.949Z,8.37
2023-03-18T11:55:01.643Z,9.22
2023-03-18T11:57:33.918Z,9.61
2023-03-18T12:00:17.931Z,9.88
2023-03-18T12:03:13.856Z,10.22
2023-03-18T12:05:54.338Z,10.31
2023-03-18T12:08:50.959Z,10.21
2023-03-18T12:11:23.744Z,10.23
2023-03-18T12:14:22.227Z,10.55
2023-03-18T12:17:02.179Z,11.03
2023-03-18T12:19:51.041Z,11.34
2023-03-18T12:22:22.489Z,11.61
2023-03-18T12:24:56.812Z,11.98
2023-03-18T12:28:01.650Z,12.44
2023-03-18T12:31:16.332Z,12.70
2023-03-18T12:33:58.202Z,13.12
2023-03-18T12:36:48.803Z,13.31
2023-03-18T12:39:35.932Z,13.16
2023-03-18T12:42:07.580Z,13.13
2023-03-18T12:44:52.548Z,13.64
2023-03-18T12:47:37.175Z,14.31
2023-03-18T12:50:34.567Z,14.71
2023-03-18T12:53:04.482Z,14.74
2023-03-18T12:55:57.232Z,14.36
2023-03-18T12:58:31.608Z,13.83
2023-03-18T13:01:07.314Z,13.78
2023-03-18T13:03:38.966Z,13.95
2023-03-18T13:06:22.594Z,14.19
2023-03-18T13:09:08.587Z,14.39
2023-03-18T13:11:47.213Z,14.38
2023-03-18T13:14:27.458Z,14.57
2023-03-18T13:16:56.987Z,14.83
2023-03-18T13:19:25.954Z,14.92
2023-03-18T13:22:12.564Z,14.91
2023-03-18T13:24:46.723Z,15.03
2023-03-18T13:27:22.253Z,15.17
2023-03-18T13:30:02.293Z,14.99
2023-03-18T13:33:04.181Z,14.81
2023-03-18T13:35:37.787Z,15.05
2023-03-18T13:38:34.893Z,15.29
2023-03-18T13:41:26.927Z,15.34
2023-03-18T13:43:56.231Z,15.51
2023-03-18T13:46:27.492Z,15.82
2023-03-18T13:49:00.358Z,16.00
2023-03-18T13:51:29.874Z,15.97
2023-03-18T13:54:01.035Z,15.67
2023-03-18T13:56:45.065Z,15.43
2023-03-18T13:59:32.385Z,15.30
2023-03-18T14:02:29.742Z,15.46
2023-03-18T14:04:59.861Z,15.96
2023-03-18T14:07:29.785Z,16.29
2023-03-18T14:10:17.127Z,16.53
2023-03-18T14:12:48.594Z,16.83
2023-03-18T14:15:23.812Z,16.98
2023-03-18T14:17:59.347Z,17.16
2023-03-18T14:20:52.823Z,17.00
2023-03-18T14:23:39.224Z,17.09
2023-03-18T14:26:16.915Z,17.26
2023-03-18T14:29:09.666Z,17.26
2023-03-18T14:31:39.053Z,17.25
2023-03-18T14:34:13.490Z,17.52
2023-03-18T14:36:58.669Z,18.01
2023-03-18T14:39:38.857Z,18.40
2023-03-18T14:42:29.627Z,18.94
2023-03-18T14:45:14.295Z,19.15
2023-03-18T14:47:56.313Z,19.41
2023-03-18T14:50:35.967Z,19.55
2023-03-18T14:53:17.780Z,19.66
2023-03-18T14:55:46.205Z,19.87
2023-03-18T14:58:16.918Z,20.11
2023-03-18T15:00:46.008Z,20.25
2023-03-18T15:03:35.820Z,20.26
2023-03-18T15:06:17.946Z,20.44
2023-03-18T15:08:53.690Z,20.89
2023-03-18T15:11:22.158Z,21.24
2023-03-18T15:13:50.594Z,21.45
2023-03-18T15:16:20.205Z,21.63
2023-03-18T15:18:53.142Z,21.73
2023-03-18T15:21:30.771Z,21.73
2023-03-18T15:24:01.377Z,21.75
2023-03-18T15:26:32.002Z,21.62
2023-03-18T15:29:02.536Z,21.42
2023-03-18T15:31:33.888Z,21.15
2023-03-18T15:34:20.287Z,20.88
2023-03-18T15:36:57.618Z,20.59
2023-03-18T15:39:39.070Z,20.39
2023-03-18T15:42:15.191Z,20.08
2023-03-18T15:44:46.377Z,19.75
2023-03-18T15:47:22.333Z,19.09
2023-03-18T15:50:00.773Z,18.22
2023-03-18T15:52:33.765Z,17.29
2023-03-18T15:55:02.678Z,16.47
2023-03-18T15:57:38.393Z,15.66
2023-03-18T16:00:10.767Z,14.95
2023-03-18T16:02:42.162Z,14.37
2023-03-18T16:05:26.778Z,13.84
2023-03-18T16:07:55.469Z,13.12
2023-03-18T16:10:25.938Z,12.49
2023-03-18T16:12:56.827Z,11.95
2023-03-18T16:15:26.064Z,11.47
2023-03-18T16:17:55.452Z,11.08
2023-03-18T16:20:26.284Z,10.74
2023-03-18T16:22:55.577Z,10.46
2023-03-18T16:25:24.581Z,10.18
2023-03-18T16:27:56.923Z,9.86
2023-03-18T16:30:30.064Z,9.52
2023-03-18T16:32:58.967Z,9.24
2023-03-18T16:35:31.049Z,9.00
2023-03-18T16:37:59.986Z,8.81
2023-03-18T16:40:33.085Z,8.65
2023-03-18T16:43:02.377Z,8.50
2023-03-18T16:45:32.454Z,8.32
2023-03-18T16:48:07.099Z,8.14
2023-03-18T16:50:37.825Z,7.98
2023-03-18T16:53:18.634Z,7.89
2023-03-18T16:55:52.053Z,7.76
2023-03-18T16:58:25.736Z,7.64
2023-03-18T17:00:54.544Z,7.56
2023-03-18T17:03:23.623Z,7.50
2023-03-18T17:05:53.161Z,7.43
2023-03-18T17:08:23.771Z,7.34
2023-03-18T17:10:55.634Z,7.27
2023-03-18T17:13:26.202Z,7.20
2023-03-18T17:15:54.770Z,7.12
2023-03-18T17:18:24.153Z,7.02
2023-03-18T17:20:55.804Z,6.92
2023-03-18T17:23:27.056Z,6.84
2023-03-18T17:25:59.327Z,6.77
2023-03-18T17:28:36.074Z,6.72
2023-03-18T17:31:05.153Z,6.65
2023-03-18T17:33:35.733Z,6.58
2023-03-18T17:36:04.923Z,6.51
2023-03-18T17:38:35.296Z,6.43
2023-03-18T17:41:05.804Z,6.35
2023-03-18T17:43:36.369Z,6.28
2023-03-18T17:46:06.538Z,6.20
2023-03-18T17:48:37.528Z,6.06
2023-03-18T17:51:17.718Z,5.95
2023-03-18T17:53:55.642Z,5.90
2023-03-18T17:56:24.839Z,5.83
2023-03-18T17:58:56.906Z,5.76
2023-03-18T18:01:27.472Z,5.69
2023-03-18T18:03:59.923Z,5.64
2023-03-18T18:06:29.593Z,5.57
2023-03-18T18:09:02.384Z,5.51
2023-03-18T18:11:35.617Z,5.46
2023-03-18T18:14:15.051Z,5.39
2023-03-18T18:16:43.941Z,5.33
2023-03-18T18:19:15.212Z,5.28
2023-03-18T18:21:44.386Z,5.23
2023-03-18T18:24:33.751Z,5.18
2023-03-18T18:27:04.713Z,5.09
2023-03-18T18:29:35.029Z,5.00
2023-03-18T18:32:06.977Z,4.93
2023-03-18T18:34:36.766Z,4.88
2023-03-18T18:37:05.176Z,4.77
2023-03-18T18:39:33.550Z,4.70
2023-03-18T18:42:10.429Z,4.69
2023-03-18T18:44:38.912Z,4.66
2023-03-18T18:47:19.183Z,4.62
2023-03-18T18:49:52.470Z,4.57
2023-03-18T18:52:21.673Z,4.52
2023-03-18T18:54:50.073Z,4.47
2023-03-18T18:57:25.157Z,4.41
2023-03-18T18:59:54.283Z,4.40
2023-03-18T19:02:34.025Z,4.37
2023-03-18T19:05:04.978Z,4.28
2023-03-18T19:07:34.058Z,4.21
2023-03-18T19:10:02.435Z,4.21
2023-03-18T19:12:31.440Z,4.19
2023-03-18T19:15:07.127Z,4.17
2023-03-18T19:17:36.484Z,4.14
2023-03-18T19:20:05.651Z,4.11
2023-03-18T19:22:36.929Z,4.10
2023-03-18T19:25:05.868Z,4.06
2023-03-18T19:27:34.307Z,4.02
2023-03-18T19:30:07.843Z,3.97
2023-03-18T19:32:36.842Z,4.01
2023-03-18T19:35:10.403Z,4.02
2023-03-18T19:37:39.498Z,4.03
2023-03-18T19:40:19.756Z,4.04
2023-03-18T19:42:48.447Z,4.05
2023-03-18T19:45:18.061Z,3.99
2023-03-18T19:47:48.777Z,3.92
2023-03-18T19:50:18.519Z,3.92
2023-03-18T19:52:49.119Z,3.93
2023-03-18T19:55:18.025Z,3.93
2023-03-18T19:57:47.208Z,3.89
2023-03-18T20:00:22.128Z,3.85
2023-03-18T20:02:51.299Z,3.94
2023-03-18T20:05:23.717Z,3.99
2023-03-18T20:07:52.712Z,4.03
2023-03-18T20:10:21.705Z,4.05
2023-03-18T20:12:51.517Z,4.09
2023-03-18T20:15:22.149Z,4.12
2023-03-18T20:17:51.459Z,4.17
2023-03-18T20:20:25.573Z,4.19
2023-03-18T20:22:57.636Z,4.22
2023-03-18T20:25:29.077Z,4.24
2023-03-18T20:27:58.484Z,4.24
2023-03-18T20:30:29.616Z,4.16
2023-03-18T20:33:00.213Z,4.08
2023-03-18T20:35:32.452Z,4.08
2023-03-18T20:38:05.213Z,4.17
2023-03-18T20:40:35.843Z,4.27
2023-03-18T20:43:04.735Z,4.37
2023-03-18T20:45:34.403Z,4.46
2023-03-18T20:48:03.026Z,4.53
2023-03-18T20:50:32.123Z,4.54
2023-03-18T20:53:01.132Z,4.56
2023-03-18T20:55:31.921Z,4.53
2023-03-18T20:58:07.304Z,4.44
2023-03-18T21:00:36.908Z,4.36
2023-03-18T21:03:06.821Z,4.26
2023-03-18T21:05:35.408Z,4.17
2023-03-18T21:08:04.724Z,4.11
2023-03-18T21:10:35.237Z,4.05
2023-03-18T21:13:26.158Z,4.11
2023-03-18T21:15:55.134Z,4.12
2023-03-18T21:18:29.047Z,4.01
2023-03-18T21:20:58.343Z,3.95
2023-03-18T21:23:28.467Z,3.95
2023-03-18T21:25:57.458Z,3.89
2023-03-18T21:28:28.185Z,3.84
2023-03-18T21:30:59.455Z,3.77
2023-03-18T21:33:30.168Z,3.70
2023-03-18T21:35:58.922Z,3.59
2023-03-18T21:38:31.766Z,3.46
2023-03-18T21:41:00.323Z,3.43
2023-03-18T21:43:39.879Z,3.40
2023-03-18T21:46:12.691Z,3.36
2023-03-18T21:48:41.026Z,3.31
2023-03-18T21:51:35.206Z,3.22
2023-03-18T21:54:06.609Z,3.24
2023-03-18T21:56:35.039Z,3.18
2023-03-18T21:59:03.649Z,3.15
2023-03-18T22:01:32.616Z,3.12
2023-03-18T22:04:01.475Z,3.12
2023-03-18T22:06:30.130Z,3.13
2023-03-18T22:08:58.574Z,3.11
2023-03-18T22:11:27.990Z,3.08
2023-03-18T22:13:57.200Z,3.05
2023-03-18T22:16:26.354Z,3.00
2023-03-18T22:18:54.961Z,2.94
2023-03-18T22:21:25.211Z,2.90
2023-03-18T22:23:54.384Z,2.85
2023-03-18T22:26:22.870Z,2.82
2023-03-18T22:28:55.133Z,2.78
2023-03-18T22:31:25.470Z,2.70
2023-03-18T22:33:54.042Z,2.73
2023-03-18T22:36:22.519Z,2.75
2023-03-18T22:38:51.217Z,2.78
2023-03-18T22:41:25.010Z,2.89
2023-03-18T22:43:53.901Z,2.99
2023-03-18T22:46:22.238Z,3.05
2023-03-18T22:48:52.198Z,3.12
2023-03-18T22:51:26.758Z,3.14
2023-03-18T22:53:55.608Z,3.20
2023-03-18T22:56:24.396Z,3.33
2023-03-18T22:58:52.788Z,3.42
2023-03-18T23:01:23.421Z,3.50
2023-03-18T23:03:51.994Z,3.51
2023-03-18T23:06:24.018Z,3.61
2023-03-18T23:08:54.281Z,3.66
2023-03-18T23:11:24.219Z,3.71
2023-03-18T23:13:54.212Z,3.74
2023-03-18T23:16:23.439Z,3.75
2023-03-18T23:18:52.103Z,3.72
2023-03-18T23:21:22.237Z,3.73
2023-03-18T23:23:52.663Z,3.82
2023-03-18T23:26:22.462Z,3.92
2023-03-18T23:28:51.176Z,3.99
2023-03-18T23:31:19.669Z,4.05
2023-03-18T23:33:48.129Z,4.06
2023-03-18T23:36:17.442Z,4.02
2023-03-18T23:38:46.201Z,4.03
2023-03-18T23:41:14.575Z,4.13
2023-03-18T23:43:51.153Z,4.16
2023-03-18T23:46:19.877Z,4.20
2023-03-18T23:48:48.514Z,4.27
2023-03-18T23:51:17.610Z,4.32
2023-03-18T23:53:46.091Z,4.25
2023-03-18T23:56:17.548Z,4.24
2023-03-18T23:58:47.050Z,4.27
